Time;durP1;ratioP1;P1;durP2;ratioP2;P2;SDS_P1;SDS_P2;PMS_P1;PMS_P2;Temp;Humidity;BMP_temperature;BMP_pressure;BME280_temperature;BME280_humidity;BME280_pressure;Samples;Min_cycle;Max_cycle;Signal;HPM_P1;HPM_P2
2023/03/22 00:00:13;;;;;;;;;;;20.10;45.00;;;;;;5037354;28;20017;-56
2023/03/22 00:02:42;;;;;;;;;;;20.10;45.10;;;;;;5053003;28;19974;-55
2023/03/22 00:05:09;;;;;;;;;;;20.10;45.10;;;;;;5053148;28;20070;-56
2023/03/22 00:07:36;;;;;;;;;;;20.10;45.10;;;;;;5049975;28;19924;-56
2023/03/22 00:10:05;;;;;;;;;;;20.10;45.00;;;;;;5054459;28;20030;-53
2023/03/22 00:12:32;;;;;;;;;;;20.10;45.00;;;;;;5066873;28;19932;-52
2023/03/22 00:15:00;;;;;;;;;;;20.10;45.00;;;;;;5066967;28;19927;-54
2023/03/22 00:17:27;;;;;;;;;;;20.10;44.90;;;;;;5069303;28;19966;-52
2023/03/22 00:19:55;;;;;;;;;;;20.10;45.00;;;;;;5052924;28;19924;-53
2023/03/22 00:22:22;;;;;;;;;;;20.10;45.00;;;;;;5049775;28;20441;-56
2023/03/22 00:24:48;;;;;;;;;;;20.10;45.00;;;;;;5052628;28;19940;-55
2023/03/22 00:27:15;;;;;;;;;;;20.00;44.90;;;;;;5085722;28;19973;-52
2023/03/22 00:29:42;;;;;;;;;;;20.10;45.00;;;;;;5053699;28;20007;-53
2023/03/22 00:32:09;;;;;;;;;;;20.10;45.00;;;;;;5035812;28;20270;-55
2023/03/22 00:34:36;;;;;;;;;;;20.00;44.90;;;;;;5070664;28;19933;-55
2023/03/22 00:37:04;;;;;;;;;;;20.00;44.90;;;;;;5052469;28;19920;-56
2023/03/22 00:39:31;;;;;;;;;;;20.00;44.90;;;;;;5069657;28;20229;-54
2023/03/22 00:41:57;;;;;;;;;;;20.00;44.90;;;;;;5084100;28;19920;-54
2023/03/22 00:44:24;;;;;;;;;;;20.00;44.90;;;;;;5076349;28;19946;-53
2023/03/22 00:46:51;;;;;;;;;;;20.00;44.90;;;;;;5076372;28;19940;-54
2023/03/22 00:49:18;;;;;;;;;;;20.00;44.90;;;;;;5061580;28;20018;-53
2023/03/22 00:51:45;;;;;;;;;;;20.00;44.90;;;;;;5052107;28;19947;-53
2023/03/22 00:54:14;;;;;;;;;;;20.00;44.90;;;;;;5052316;28;19921;-55
2023/03/22 00:56:44;;;;;;;;;;;20.00;44.90;;;;;;5051980;28;19920;-52
2023/03/22 00:59:11;;;;;;;;;;;20.00;44.90;;;;;;5050145;28;19921;-56
2023/03/22 01:01:37;;;;;;;;;;;20.00;44.90;;;;;;5040650;28;19921;-54
2023/03/22 01:04:05;;;;;;;;;;;20.00;44.90;;;;;;5051688;28;19921;-54
2023/03/22 01:06:31;;;;;;;;;;;20.00;44.90;;;;;;5052006;28;19973;-55
2023/03/22 01:08:58;;;;;;;;;;;20.00;45.00;;;;;;5051877;28;19920;-56
2023/03/22 01:11:26;;;;;;;;;;;20.00;44.90;;;;;;5051863;28;19920;-53
2023/03/22 01:13:53;;;;;;;;;;;20.00;44.90;;;;;;5040068;28;20008;-55
2023/03/22 01:16:20;;;;;;;;;;;20.00;44.90;;;;;;5051938;28;19932;-54
2023/03/22 01:18:47;;;;;;;;;;;20.00;44.90;;;;;;5052171;28;19928;-51
2023/03/22 01:21:13;;;;;;;;;;;20.00;44.90;;;;;;5073102;28;19924;-54
2023/03/22 01:23:40;;;;;;;;;;;20.00;44.90;;;;;;5080005;28;20014;-54
2023/03/22 01:26:07;;;;;;;;;;;20.00;44.90;;;;;;5069754;28;19924;-55
2023/03/22 01:28:35;;;;;;;;;;;20.00;44.90;;;;;;5047643;28;19962;-51
2023/03/22 01:31:02;;;;;;;;;;;20.00;44.90;;;;;;5061542;28;19927;-53
2023/03/22 01:33:29;;;;;;;;;;;20.00;44.90;;;;;;5069899;28;19920;-54
2023/03/22 01:35:56;;;;;;;;;;;20.00;44.90;;;;;;5052348;28;19973;-54
2023/03/22 01:38:23;;;;;;;;;;;20.00;44.90;;;;;;5071511;28;19920;-53
2023/03/22 01:40:50;;;;;;;;;;;20.00;44.90;;;;;;5060985;28;19925;-54
2023/03/22 01:43:17;;;;;;;;;;;20.00;44.90;;;;;;5051862;28;19943;-53
2023/03/22 01:45:45;;;;;;;;;;;20.00;44.90;;;;;;5049932;28;19925;-56
2023/03/22 01:48:16;;;;;;;;;;;20.00;44.90;;;;;;5061611;28;19932;-57
2023/03/22 01:50:44;;;;;;;;;;;20.00;44.90;;;;;;5060830;28;20208;-51
2023/03/22 01:53:12;;;;;;;;;;;20.00;44.90;;;;;;5055883;28;19974;-54
2023/03/22 01:55:39;;;;;;;;;;;20.00;44.90;;;;;;5066869;28;19946;-51
2023/03/22 01:58:05;;;;;;;;;;;19.90;44.80;;;;;;5059252;28;19924;-53
2023/03/22 02:00:32;;;;;;;;;;;20.00;44.90;;;;;;5050954;28;19952;-53
2023/03/22 02:03:00;;;;;;;;;;;19.90;44.80;;;;;;5069989;28;19921;-55
2023/03/22 02:05:27;;;;;;;;;;;19.90;44.80;;;;;;5069241;28;19925;-53
2023/03/22 02:07:54;;;;;;;;;;;20.00;44.90;;;;;;5051112;28;19924;-55
2023/03/22 02:10:22;;;;;;;;;;;20.00;44.90;;;;;;5051279;28;19920;-53
2023/03/22 02:12:52;;;;;;;;;;;19.90;44.80;;;;;;5051730;28;19977;-53
2023/03/22 02:15:20;;;;;;;;;;;19.90;44.80;;;;;;5053975;28;19934;-51
2023/03/22 02:17:50;;;;;;;;;;;19.90;44.80;;;;;;5052331;28;19975;-54
2023/03/22 02:20:37;;;;;;;;;;;19.90;44.80;;;;;;5035126;28;20457;-56
2023/03/22 02:23:16;;;;;;;;;;;19.90;44.80;;;;;;5050488;28;19928;-54
2023/03/22 02:25:47;;;;;;;;;;;19.90;44.80;;;;;;5055340;28;19947;-56
2023/03/22 02:28:17;;;;;;;;;;;19.90;44.80;;;;;;5054817;28;19986;-54
2023/03/22 02:31:03;;;;;;;;;;;19.90;44.80;;;;;;5051287;28;20300;-54
2023/03/22 02:33:37;;;;;;;;;;;19.90;44.80;;;;;;5071119;28;19928;-54
2023/03/22 02:36:13;;;;;;;;;;;19.90;44.80;;;;;;5055146;28;19927;-52
2023/03/22 02:38:59;;;;;;;;;;;19.90;44.70;;;;;;5054577;28;19959;-54
2023/03/22 02:41:30;;;;;;;;;;;19.90;44.70;;;;;;5054786;28;19921;-55
2023/03/22 02:44:00;;;;;;;;;;;19.90;44.70;;;;;;5054853;28;19978;-55
2023/03/22 02:46:30;;;;;;;;;;;19.90;44.70;;;;;;5055252;28;19925;-56
2023/03/22 02:48:59;;;;;;;;;;;19.90;44.70;;;;;;5052975;28;20264;-56
2023/03/22 02:51:27;;;;;;;;;;;19.90;44.70;;;;;;5070606;28;19924;-53
2023/03/22 02:53:54;;;;;;;;;;;19.90;44.70;;;;;;5060833;28;20057;-53
2023/03/22 02:56:22;;;;;;;;;;;19.90;44.70;;;;;;5058903;28;19974;-52
2023/03/22 02:58:52;;;;;;;;;;;19.90;44.80;;;;;;5057910;28;19924;-55
2023/03/22 03:01:20;;;;;;;;;;;19.90;44.80;;;;;;5056502;28;19925;-55
2023/03/22 03:03:47;;;;;;;;;;;19.90;44.80;;;;;;5049617;28;19924;-52
2023/03/22 03:06:15;;;;;;;;;;;19.90;44.80;;;;;;5049686;28;19931;-54
2023/03/22 03:08:42;;;;;;;;;;;19.90;44.80;;;;;;5070416;28;19920;-55
2023/03/22 03:11:09;;;;;;;;;;;19.90;44.80;;;;;;5054124;28;20267;-54
2023/03/22 03:13:35;;;;;;;;;;;19.90;44.80;;;;;;5072335;28;20023;-55
2023/03/22 03:16:06;;;;;;;;;;;19.90;44.80;;;;;;5054073;28;19927;-57
2023/03/22 03:18:39;;;;;;;;;;;19.90;44.80;;;;;;5053847;28;19924;-54
2023/03/22 03:21:07;;;;;;;;;;;19.90;44.80;;;;;;5054207;28;20367;-55
2023/03/22 03:23:37;;;;;;;;;;;19.90;44.80;;;;;;5064845;28;19971;-54
2023/03/22 03:26:06;;;;;;;;;;;19.90;44.80;;;;;;5053983;28;19967;-55
2023/03/22 03:28:37;;;;;;;;;;;19.90;44.70;;;;;;5054024;28;19920;-53
2023/03/22 03:31:06;;;;;;;;;;;19.80;44.70;;;;;;5053973;28;19920;-54
2023/03/22 03:33:33;;;;;;;;;;;19.90;44.70;;;;;;5071717;28;19926;-51
2023/03/22 03:36:00;;;;;;;;;;;19.90;44.80;;;;;;5072128;28;20256;-56
2023/03/22 03:38:28;;;;;;;;;;;19.90;44.80;;;;;;5060348;28;19985;-55
2023/03/22 03:40:55;;;;;;;;;;;19.80;44.70;;;;;;5062007;28;19920;-54
2023/03/22 03:43:24;;;;;;;;;;;19.80;44.70;;;;;;5053653;28;19931;-54
2023/03/22 03:45:51;;;;;;;;;;;19.80;44.70;;;;;;5054045;28;19958;-56
2023/03/22 03:48:20;;;;;;;;;;;19.80;44.70;;;;;;5053526;28;20037;-53
2023/03/22 03:50:47;;;;;;;;;;;19.80;44.70;;;;;;5053291;28;19970;-54
2023/03/22 03:53:13;;;;;;;;;;;19.80;44.70;;;;;;5071156;28;19950;-55
2023/03/22 03:55:40;;;;;;;;;;;19.90;44.70;;;;;;5052265;28;19978;-54
2023/03/22 03:58:08;;;;;;;;;;;19.90;44.70;;;;;;5043608;28;19928;-57
2023/03/22 04:00:35;;;;;;;;;;;19.80;44.70;;;;;;5053253;28;19932;-51
2023/03/22 04:03:01;;;;;;;;;;;19.80;44.70;;;;;;5053472;28;19920;-56
2023/03/22 04:05:29;;;;;;;;;;;19.80;44.70;;;;;;5052714;28;19927;-54
2023/03/22 04:07:56;;;;;;;;;;;19.90;44.70;;;;;;5052729;28;19929;-55
2023/03/22 04:10:23;;;;;;;;;;;19.90;44.70;;;;;;5068747;28;19920;-57
2023/03/22 04:12:50;;;;;;;;;;;19.90;44.70;;;;;;5060209;28;19924;-55
2023/03/22 04:15:17;;;;;;;;;;;19.80;44.60;;;;;;5052779;28;19920;-55
2023/03/22 04:17:45;;;;;;;;;;;19.80;44.70;;;;;;5070991;28;19966;-54
2023/03/22 04:20:12;;;;;;;;;;;19.90;44.70;;;;;;5070733;28;19920;-50
2023/03/22 04:22:40;;;;;;;;;;;19.90;44.70;;;;;;5070877;28;19921;-54
2023/03/22 04:25:10;;;;;;;;;;;19.80;44.60;;;;;;5052651;28;20420;-52
2023/03/22 04:27:37;;;;;;;;;;;19.80;44.60;;;;;;5052425;28;20020;-52
2023/03/22 04:30:04;;;;;;;;;;;19.80;44.60;;;;;;5052845;28;19920;-52
2023/03/22 04:32:31;;;;;;;;;;;19.90;44.70;;;;;;5055407;28;19924;-54
2023/03/22 04:34:58;;;;;;;;;;;19.90;44.60;;;;;;5078793;28;19920;-54
2023/03/22 04:37:25;;;;;;;;;;;19.80;44.60;;;;;;5051864;28;19927;-55
2023/03/22 04:39:54;;;;;;;;;;;19.80;44.60;;;;;;5052773;28;19924;-56
2023/03/22 04:42:20;;;;;;;;;;;19.80;44.60;;;;;;5052205;28;20007;-54
2023/03/22 04:44:47;;;;;;;;;;;19.80;44.60;;;;;;5052614;28;20243;-51
2023/03/22 04:47:14;;;;;;;;;;;19.80;44.60;;;;;;5070419;28;19920;-54
2023/03/22 04:49:41;;;;;;;;;;;19.80;44.50;;;;;;5048143;28;19924;-55
2023/03/22 04:52:08;;;;;;;;;;;19.80;44.50;;;;;;5049815;28;19921;-56
2023/03/22 04:54:35;;;;;;;;;;;19.80;44.50;;;;;;5080545;28;19924;-53
2023/03/22 04:57:03;;;;;;;;;;;19.80;44.50;;;;;;5051638;28;19925;-56
2023/03/22 04:59:30;;;;;;;;;;;19.80;44.60;;;;;;5052482;28;20436;-53
2023/03/22 05:01:57;;;;;;;;;;;19.80;44.50;;;;;;5057145;28;20227;-54
2023/03/22 05:04:24;;;;;;;;;;;19.80;44.50;;;;;;5056439;28;19966;-56
2023/03/22 05:06:51;;;;;;;;;;;19.80;44.50;;;;;;5059973;28;20359;-53
2023/03/22 05:09:18;;;;;;;;;;;19.80;44.50;;;;;;5057492;28;19920;-54
2023/03/22 05:11:44;;;;;;;;;;;19.80;44.50;;;;;;5059328;28;20325;-52
2023/03/22 05:14:12;;;;;;;;;;;19.80;44.50;;;;;;5061240;28;19985;-55
2023/03/22 05:16:40;;;;;;;;;;;19.80;44.50;;;;;;5054686;28;19927;-55
2023/03/22 05:19:12;;;;;;;;;;;19.80;44.50;;;;;;5069620;28;19920;-56
2023/03/22 05:21:39;;;;;;;;;;;19.80;44.50;;;;;;5069617;28;20201;-55
2023/03/22 05:24:07;;;;;;;;;;;19.80;44.40;;;;;;5060314;28;19927;-55
2023/03/22 05:26:36;;;;;;;;;;;19.80;44.50;;;;;;5059898;28;19970;-50
2023/03/22 05:29:03;;;;;;;;;;;19.80;44.40;;;;;;5056942;28;20000;-54
2023/03/22 05:31:33;;;;;;;;;;;19.80;44.50;;;;;;5069145;28;19970;-55
2023/03/22 05:34:00;;;;;;;;;;;19.80;44.50;;;;;;5049829;28;19999;-56
2023/03/22 05:36:28;;;;;;;;;;;19.80;44.40;;;;;;5059205;28;19927;-53
2023/03/22 05:38:55;;;;;;;;;;;19.80;44.40;;;;;;5068101;28;19931;-52
2023/03/22 05:41:21;;;;;;;;;;;19.80;44.40;;;;;;5069207;28;19928;-51
2023/03/22 05:43:49;;;;;;;;;;;19.80;44.40;;;;;;5061633;28;19925;-51
2023/03/22 05:46:16;;;;;;;;;;;19.80;44.40;;;;;;5054070;28;19921;-54
2023/03/22 05:48:44;;;;;;;;;;;19.80;44.40;;;;;;5058793;28;19978;-54
2023/03/22 05:51:16;;;;;;;;;;;19.80;44.40;;;;;;5056041;28;20308;-55
2023/03/22 05:53:43;;;;;;;;;;;19.80;44.30;;;;;;5058468;28;19974;-51
2023/03/22 05:56:09;;;;;;;;;;;19.80;44.30;;;;;;5065421;28;20354;-54
2023/03/22 05:58:36;;;;;;;;;;;19.80;44.90;;;;;;5058164;28;19920;-54
2023/03/22 06:01:06;;;;;;;;;;;19.80;44.40;;;;;;5054206;28;19951;-56
2023/03/22 06:03:33;;;;;;;;;;;19.80;45.00;;;;;;5057749;28;19928;-53
2023/03/22 06:06:05;;;;;;;;;;;19.80;44.40;;;;;;5075032;28;19920;-54
2023/03/22 06:08:32;;;;;;;;;;;19.80;44.40;;;;;;5055507;28;20015;-54
2023/03/22 06:10:59;;;;;;;;;;;19.80;44.40;;;;;;5055033;28;19920;-56
2023/03/22 06:13:26;;;;;;;;;;;19.80;44.40;;;;;;5078430;28;19985;-53
2023/03/22 06:15:54;;;;;;;;;;;19.80;44.40;;;;;;5093046;28;20319;-53
2023/03/22 06:18:21;;;;;;;;;;;19.80;44.40;;;;;;5067029;28;19921;-54
2023/03/22 06:20:48;;;;;;;;;;;19.80;44.40;;;;;;5055411;28;19920;-55
2023/03/22 06:23:16;;;;;;;;;;;19.80;44.40;;;;;;5070525;28;20309;-56
2023/03/22 06:25:43;;;;;;;;;;;19.80;44.40;;;;;;5053609;28;19975;-55
2023/03/22 06:28:10;;;;;;;;;;;19.80;44.40;;;;;;5039221;28;19926;-54
2023/03/22 06:30:37;;;;;;;;;;;19.80;44.40;;;;;;5054872;28;20420;-54
2023/03/22 06:33:04;;;;;;;;;;;19.80;44.40;;;;;;5072972;28;19981;-57
2023/03/22 06:35:31;;;;;;;;;;;19.80;44.40;;;;;;5054767;28;19928;-51
2023/03/22 06:37:58;;;;;;;;;;;19.80;44.40;;;;;;5055065;28;19954;-51
2023/03/22 06:40:27;;;;;;;;;;;19.80;44.40;;;;;;5064791;28;20092;-54
2023/03/22 06:42:54;;;;;;;;;;;19.80;44.40;;;;;;5052837;28;19925;-53
2023/03/22 06:45:21;;;;;;;;;;;19.80;44.40;;;;;;5054662;28;20019;-51
2023/03/22 06:47:49;;;;;;;;;;;19.80;44.40;;;;;;5054505;28;19974;-53
2023/03/22 06:50:16;;;;;;;;;;;19.80;44.40;;;;;;5054060;28;20058;-55
2023/03/22 06:52:42;;;;;;;;;;;19.80;44.40;;;;;;5056024;28;19968;-54
2023/03/22 06:55:12;;;;;;;;;;;19.80;44.40;;;;;;5066515;28;19920;-55
2023/03/22 06:57:40;;;;;;;;;;;19.80;44.40;;;;;;5053163;28;19925;-54
2023/03/22 07:00:07;;;;;;;;;;;19.80;44.40;;;;;;5073999;28;20305;-55
2023/03/22 07:02:35;;;;;;;;;;;19.80;44.40;;;;;;5059145;28;19959;-54
2023/03/22 07:05:01;;;;;;;;;;;19.80;44.40;;;;;;5072039;28;19963;-53
2023/03/22 07:07:28;;;;;;;;;;;19.80;44.40;;;;;;5054669;28;19925;-54
2023/03/22 07:09:55;;;;;;;;;;;19.80;44.40;;;;;;5070155;28;19924;-57
2023/03/22 07:12:22;;;;;;;;;;;19.80;44.40;;;;;;5050424;28;19933;-54
2023/03/22 07:14:51;;;;;;;;;;;19.80;44.40;;;;;;5053823;28;19925;-52
2023/03/22 07:17:17;;;;;;;;;;;19.80;44.40;;;;;;5064405;28;19988;-54
2023/03/22 07:19:44;;;;;;;;;;;19.80;44.40;;;;;;5070509;28;19928;-54
2023/03/22 07:22:11;;;;;;;;;;;19.80;44.50;;;;;;5063740;28;19921;-57
2023/03/22 07:24:38;;;;;;;;;;;19.80;44.40;;;;;;5072967;28;19978;-54
2023/03/22 07:27:04;;;;;;;;;;;19.80;45.00;;;;;;5066251;28;19924;-55
2023/03/22 07:29:31;;;;;;;;;;;19.80;44.50;;;;;;5065271;28;19932;-51
2023/03/22 07:31:59;;;;;;;;;;;19.80;44.50;;;;;;5064102;28;20422;-51
2023/03/22 07:34:26;;;;;;;;;;;19.80;44.50;;;;;;5056909;28;19924;-55
2023/03/22 07:36:55;;;;;;;;;;;19.80;44.50;;;;;;5069732;28;19928;-53
2023/03/22 07:39:23;;;;;;;;;;;19.80;44.50;;;;;;5067024;28;19924;-55
2023/03/22 07:41:50;;;;;;;;;;;19.80;44.50;;;;;;5058387;28;19939;-53
2023/03/22 07:44:17;;;;;;;;;;;19.80;44.50;;;;;;5069917;28;19928;-56
2023/03/22 07:46:44;;;;;;;;;;;19.80;44.50;;;;;;5056391;28;19921;-54
2023/03/22 07:49:12;;;;;;;;;;;19.80;44.50;;;;;;5064078;28;19928;-55
2023/03/22 07:51:39;;;;;;;;;;;19.80;44.50;;;;;;5062902;28;19950;-55
2023/03/22 07:54:06;;;;;;;;;;;19.80;44.50;;;;;;5065192;28;20017;-54
2023/03/22 07:56:33;;;;;;;;;;;19.80;44.50;;;;;;5065219;28;19941;-55
2023/03/22 07:59:00;;;;;;;;;;;19.80;44.50;;;;;;5063689;28;19978;-55
2023/03/22 08:01:26;;;;;;;;;;;19.80;44.50;;;;;;5064036;28;19952;-55
2023/03/22 08:03:53;;;;;;;;;;;19.80;44.60;;;;;;5051950;28;19970;-55
2023/03/22 08:06:21;;;;;;;;;;;19.80;44.60;;;;;;5063296;28;19990;-57
2023/03/22 08:08:48;;;;;;;;;;;19.80;44.50;;;;;;5050516;28;19932;-55
2023/03/22 08:11:15;;;;;;;;;;;19.80;44.60;;;;;;5053411;28;19970;-55
2023/03/22 08:13:41;;;;;;;;;;;19.80;44.60;;;;;;5065178;28;19928;-56
2023/03/22 08:16:08;;;;;;;;;;;19.90;44.70;;;;;;5062403;28;19924;-56
2023/03/22 08:18:35;;;;;;;;;;;19.90;44.60;;;;;;5069800;28;20347;-54
2023/03/22 08:21:02;;;;;;;;;;;19.90;44.60;;;;;;5061384;28;19924;-56
2023/03/22 08:23:30;;;;;;;;;;;19.80;44.60;;;;;;5063545;28;19924;-55
2023/03/22 08:25:57;;;;;;;;;;;19.90;44.70;;;;;;5065095;28;19924;-54
2023/03/22 08:28:23;;;;;;;;;;;19.90;44.70;;;;;;5061027;28;19977;-52
2023/03/22 08:30:50;;;;;;;;;;;19.90;44.70;;;;;;5063135;28;19920;-56
2023/03/22 08:33:20;;;;;;;;;;;19.90;44.70;;;;;;5053259;28;19942;-55
2023/03/22 08:35:46;;;;;;;;;;;19.90;44.70;;;;;;5059666;28;19932;-57
2023/03/22 08:38:13;;;;;;;;;;;19.90;44.70;;;;;;5068925;28;19928;-52
2023/03/22 08:40:41;;;;;;;;;;;19.90;44.80;;;;;;5062427;28;19921;-52
2023/03/22 08:43:08;;;;;;;;;;;19.90;44.80;;;;;;5068191;28;19924;-55
2023/03/22 08:45:35;;;;;;;;;;;19.90;44.80;;;;;;5065265;28;19974;-55
2023/03/22 08:48:01;;;;;;;;;;;19.90;44.80;;;;;;5049835;28;19920;-56
2023/03/22 08:50:28;;;;;;;;;;;19.90;44.80;;;;;;5066861;28;19978;-57
2023/03/22 08:52:55;;;;;;;;;;;19.90;44.80;;;;;;5056662;28;19960;-57
2023/03/22 08:55:22;;;;;;;;;;;19.90;44.80;;;;;;5055031;28;19982;-55
2023/03/22 08:57:50;;;;;;;;;;;19.90;44.80;;;;;;5069779;28;19966;-54
2023/03/22 09:00:17;;;;;;;;;;;19.90;44.80;;;;;;5070081;28;19924;-55
2023/03/22 09:02:44;;;;;;;;;;;19.90;44.80;;;;;;5069534;28;19928;-54
2023/03/22 09:05:12;;;;;;;;;;;19.90;44.80;;;;;;5045584;28;19952;-54
2023/03/22 09:07:39;;;;;;;;;;;19.90;44.90;;;;;;5045483;28;19928;-53
2023/03/22 09:10:06;;;;;;;;;;;19.90;44.80;;;;;;5065606;28;19933;-55
2023/03/22 09:12:33;;;;;;;;;;;19.90;44.90;;;;;;5067069;28;20057;-54
2023/03/22 09:15:01;;;;;;;;;;;19.90;44.90;;;;;;5053898;28;20037;-53
2023/03/22 09:17:28;;;;;;;;;;;19.90;44.90;;;;;;5068314;28;19927;-56
2023/03/22 09:19:55;;;;;;;;;;;19.90;44.90;;;;;;5053251;28;19982;-55
2023/03/22 09:22:22;;;;;;;;;;;19.90;44.90;;;;;;5055814;28;19924;-55
2023/03/22 09:24:49;;;;;;;;;;;20.00;45.10;;;;;;5049679;28;19943;-55
2023/03/22 09:27:16;;;;;;;;;;;20.00;45.10;;;;;;5052888;28;20408;-56
2023/03/22 09:29:42;;;;;;;;;;;20.00;45.10;;;;;;5053859;28;19940;-55
2023/03/22 09:32:10;;;;;;;;;;;20.00;45.10;;;;;;5051443;28;19928;-56
2023/03/22 09:34:37;;;;;;;;;;;20.00;45.10;;;;;;5052386;28;20373;-55
2023/03/22 09:37:05;;;;;;;;;;;20.00;45.10;;;;;;5054107;28;19978;-56
2023/03/22 09:39:31;;;;;;;;;;;20.00;45.10;;;;;;5052715;28;20144;-56
2023/03/22 09:41:59;;;;;;;;;;;20.00;45.10;;;;;;5053009;28;19947;-56
2023/03/22 09:44:27;;;;;;;;;;;20.00;45.10;;;;;;5068168;28;19998;-56
2023/03/22 09:46:54;;;;;;;;;;;20.00;45.10;;;;;;5066660;28;19920;-54
2023/03/22 09:49:22;;;;;;;;;;;20.00;45.10;;;;;;5067856;28;19975;-56
2023/03/22 09:51:49;;;;;;;;;;;20.00;45.10;;;;;;5050891;28;19928;-52
2023/03/22 09:54:18;;;;;;;;;;;20.00;45.10;;;;;;5055075;28;19925;-55
2023/03/22 09:56:45;;;;;;;;;;;20.00;45.10;;;;;;5051036;28;19938;-57
2023/03/22 09:59:13;;;;;;;;;;;20.00;45.10;;;;;;5054419;28;19925;-55
2023/03/22 10:01:41;;;;;;;;;;;20.00;45.10;;;;;;5067836;28;19920;-56
2023/03/22 10:04:25;;;;;;;;;;;20.00;45.20;;;;;;5052167;28;19921;-55
2023/03/22 10:06:58;;;;;;;;;;;20.00;45.10;;;;;;5061838;28;19920;-56
2023/03/22 10:09:26;;;;;;;;;;;20.00;45.10;;;;;;5051438;28;19924;-55
2023/03/22 10:11:53;;;;;;;;;;;20.10;45.30;;;;;;5051044;28;19952;-53
2023/03/22 10:14:23;;;;;;;;;;;20.00;45.20;;;;;;5054050;28;19924;-56
2023/03/22 10:16:51;;;;;;;;;;;20.00;45.20;;;;;;5067836;28;19950;-57
2023/03/22 10:19:19;;;;;;;;;;;20.00;45.20;;;;;;5066755;28;19924;-53
2023/03/22 10:21:47;;;;;;;;;;;20.10;45.30;;;;;;5050070;28;19998;-55
2023/03/22 10:24:15;;;;;;;;;;;20.10;45.30;;;;;;5066313;28;19925;-54
2023/03/22 10:26:42;;;;;;;;;;;20.10;45.30;;;;;;5070483;28;19920;-55
2023/03/22 10:29:11;;;;;;;;;;;20.10;45.30;;;;;;5056609;28;19990;-56
2023/03/22 10:31:38;;;;;;;;;;;20.10;45.30;;;;;;5056569;28;20381;-56
2023/03/22 10:34:05;;;;;;;;;;;20.10;45.30;;;;;;5053394;28;20374;-56
2023/03/22 10:36:33;;;;;;;;;;;20.10;45.30;;;;;;5053332;28;19927;-57
2023/03/22 10:39:03;;;;;;;;;;;20.10;45.30;;;;;;5053756;28;20405;-57
2023/03/22 10:41:30;;;;;;;;;;;20.10;45.20;;;;;;5055410;28;19988;-57
2023/03/22 10:43:58;;;;;;;;;;;20.10;45.20;;;;;;5055513;28;19933;-52
2023/03/22 10:46:25;;;;;;;;;;;20.10;45.20;;;;;;5057316;28;20256;-57
2023/03/22 10:48:53;;;;;;;;;;;20.10;45.30;;;;;;5068776;28;19972;-56
2023/03/22 10:51:21;;;;;;;;;;;20.10;45.20;;;;;;5053356;28;19948;-55
2023/03/22 10:53:48;;;;;;;;;;;20.10;45.20;;;;;;5069897;28;19920;-56
2023/03/22 10:56:17;;;;;;;;;;;20.10;45.20;;;;;;5070011;28;20408;-53
2023/03/22 10:58:44;;;;;;;;;;;20.10;45.30;;;;;;5052352;28;19920;-56
2023/03/22 11:01:11;;;;;;;;;;;20.10;45.20;;;;;;5055795;28;19946;-56
2023/03/22 11:03:39;;;;;;;;;;;20.10;45.20;;;;;;5056838;28;19924;-56
2023/03/22 11:06:07;;;;;;;;;;;20.10;45.20;;;;;;5070251;28;19955;-57
2023/03/22 11:08:40;;;;;;;;;;;20.10;45.20;;;;;;5056489;28;19921;-52
2023/03/22 11:11:08;;;;;;;;;;;20.10;45.20;;;;;;5061554;28;20013;-53
2023/03/22 11:13:36;;;;;;;;;;;20.10;45.20;;;;;;5060116;28;19924;-54
2023/03/22 11:16:03;;;;;;;;;;;20.10;45.10;;;;;;5072067;28;20015;-57
2023/03/22 11:18:31;;;;;;;;;;;20.10;45.10;;;;;;5063165;28;19920;-56
2023/03/22 11:20:58;;;;;;;;;;;20.10;45.10;;;;;;5068742;28;20340;-55
2023/03/22 11:23:25;;;;;;;;;;;20.10;45.10;;;;;;5057294;28;19931;-56
2023/03/22 11:25:52;;;;;;;;;;;20.10;45.10;;;;;;5061203;28;19931;-56
2023/03/22 11:28:19;;;;;;;;;;;20.10;45.10;;;;;;5068120;28;19939;-57
2023/03/22 11:31:04;;;;;;;;;;;20.10;45.10;;;;;;5069776;28;19982;-57
2023/03/22 11:33:31;;;;;;;;;;;20.20;45.10;;;;;;5065423;28;20313;-56
2023/03/22 11:35:58;;;;;;;;;;;20.20;45.10;;;;;;5063034;28;19927;-53
2023/03/22 11:38:30;;;;;;;;;;;20.20;45.10;;;;;;5058842;28;19932;-55
2023/03/22 11:40:58;;;;;;;;;;;20.20;45.10;;;;;;5064235;28;19931;-56
2023/03/22 11:43:26;;;;;;;;;;;20.20;45.10;;;;;;5067787;28;19981;-56
2023/03/22 11:45:53;;;;;;;;;;;20.20;45.10;;;;;;5068356;28;19920;-56
2023/03/22 11:48:23;;;;;;;;;;;20.20;45.10;;;;;;5053872;28;19921;-54
2023/03/22 11:50:51;;;;;;;;;;;20.20;45.10;;;;;;5054008;28;19924;-57
2023/03/22 11:53:19;;;;;;;;;;;20.20;45.10;;;;;;5056781;28;19942;-56
2023/03/22 11:55:46;;;;;;;;;;;20.20;45.10;;;;;;5067473;28;19924;-55
2023/03/22 11:58:21;;;;;;;;;;;20.20;45.10;;;;;;5068657;28;19924;-57
2023/03/22 12:00:51;;;;;;;;;;;20.20;45.10;;;;;;5058284;28;19924;-55
2023/03/22 12:03:18;;;;;;;;;;;20.20;45.10;;;;;;5062669;28;19920;-54
2023/03/22 12:05:47;;;;;;;;;;;20.20;45.10;;;;;;5072137;28;19928;-57
2023/03/22 12:08:16;;;;;;;;;;;20.20;45.10;;;;;;5069766;28;20018;-56
2023/03/22 12:10:43;;;;;;;;;;;20.20;45.10;;;;;;5062118;28;19978;-56
2023/03/22 12:13:17;;;;;;;;;;;20.20;45.10;;;;;;5068509;28;20308;-56
2023/03/22 12:15:47;;;;;;;;;;;20.20;45.00;;;;;;5064417;28;19928;-57
2023/03/22 12:18:15;;;;;;;;;;;20.20;45.10;;;;;;5051075;28;20039;-54
2023/03/22 12:20:42;;;;;;;;;;;20.20;45.20;;;;;;5063237;28;19921;-57
2023/03/22 12:23:15;;;;;;;;;;;20.20;45.20;;;;;;5050223;28;19932;-56
2023/03/22 12:25:42;;;;;;;;;;;20.20;45.20;;;;;;5050306;28;20318;-57
2023/03/22 12:28:09;;;;;;;;;;;20.20;45.10;;;;;;5068199;28;19920;-57
2023/03/22 12:30:37;;;;;;;;;;;20.20;45.20;;;;;;5068563;28;19986;-56
2023/03/22 12:33:06;;;;;;;;;;;20.20;45.20;;;;;;5054236;28;20248;-57
2023/03/22 12:35:33;;;;;;;;;;;20.20;45.20;;;;;;5055350;28;19931;-58
2023/03/22 12:38:01;;;;;;;;;;;20.20;45.20;;;;;;5054501;28;19943;-52
2023/03/22 12:40:31;;;;;;;;;;;20.20;45.20;;;;;;5052113;28;20027;-57
2023/03/22 12:42:59;;;;;;;;;;;20.20;45.20;;;;;;5056062;28;19928;-56
2023/03/22 12:45:26;;;;;;;;;;;20.30;45.20;;;;;;5057030;28;19924;-57
2023/03/22 12:47:55;;;;;;;;;;;20.30;45.20;;;;;;5048203;28;19974;-56
2023/03/22 12:50:23;;;;;;;;;;;20.30;45.20;;;;;;5060464;28;20058;-57
2023/03/22 12:52:50;;;;;;;;;;;20.30;45.20;;;;;;5046255;28;19920;-57
2023/03/22 12:55:18;;;;;;;;;;;20.30;45.20;;;;;;5065512;28;20464;-56
2023/03/22 12:57:50;;;;;;;;;;;20.30;45.10;;;;;;5051238;28;19936;-55
2023/03/22 13:00:17;;;;;;;;;;;20.30;45.20;;;;;;5067730;28;20012;-55
2023/03/22 13:02:46;;;;;;;;;;;20.30;45.10;;;;;;5068404;28;19920;-57
2023/03/22 13:05:13;;;;;;;;;;;20.30;45.10;;;;;;5058120;28;19921;-54
2023/03/22 13:07:50;;;;;;;;;;;20.30;45.10;;;;;;5048568;28;19981;-54
2023/03/22 13:10:47;;;;;;;;;;;20.30;45.10;;;;;;5059356;28;19928;-55
2023/03/22 13:13:31;;;;;;;;;;;20.30;45.00;;;;;;4989025;28;19922;-56
2023/03/22 13:15:59;;;;;;;;;;;20.30;45.10;;;;;;5048136;28;19943;-55
2023/03/22 13:18:31;;;;;;;;;;;20.30;45.10;;;;;;5052205;28;19924;-57
2023/03/22 13:21:13;;;;;;;;;;;20.30;45.10;;;;;;5063449;28;19920;-55
2023/03/22 13:23:52;;;;;;;;;;;20.30;45.10;;;;;;5063515;28;20294;-55
2023/03/22 13:26:19;;;;;;;;;;;20.30;45.10;;;;;;5054582;28;19932;-56
2023/03/22 13:28:55;;;;;;;;;;;20.30;45.10;;;;;;5068496;28;19932;-57
2023/03/22 13:31:30;;;;;;;;;;;20.30;45.10;;;;;;5064690;28;19964;-57
2023/03/22 13:34:02;;;;;;;;;;;20.30;45.00;;;;;;5051486;28;20899;-57
2023/03/22 13:36:30;;;;;;;;;;;20.30;45.00;;;;;;5065505;28;19920;-57
2023/03/22 13:38:57;;;;;;;;;;;20.30;45.00;;;;;;5055948;28;19933;-55
2023/03/22 13:41:26;;;;;;;;;;;20.30;45.00;;;;;;5067101;28;19920;-55
2023/03/22 13:43:55;;;;;;;;;;;20.30;45.00;;;;;;5063900;28;19920;-56
2023/03/22 13:46:29;;;;;;;;;;;20.20;44.90;;;;;;5052805;28;19925;-57
2023/03/22 13:48:57;;;;;;;;;;;20.20;44.90;;;;;;5048005;28;19974;-56
2023/03/22 13:51:28;;;;;;;;;;;20.30;45.00;;;;;;5059395;28;19921;-54
2023/03/22 13:53:57;;;;;;;;;;;20.20;44.90;;;;;;5054878;28;19963;-55
2023/03/22 13:56:28;;;;;;;;;;;20.20;44.90;;;;;;5059990;28;19924;-53
2023/03/22 13:58:57;;;;;;;;;;;20.20;44.90;;;;;;5054322;28;19987;-56
2023/03/22 14:01:27;;;;;;;;;;;20.20;44.90;;;;;;5056003;28;19952;-56
2023/03/22 14:03:54;;;;;;;;;;;20.20;44.90;;;;;;5060983;28;20013;-56
2023/03/22 14:06:21;;;;;;;;;;;20.20;44.90;;;;;;5054091;28;19925;-55
2023/03/22 14:08:50;;;;;;;;;;;20.20;44.90;;;;;;5059791;28;19921;-54
2023/03/22 14:11:20;;;;;;;;;;;20.20;45.00;;;;;;5069674;28;19930;-51
2023/03/22 14:13:46;;;;;;;;;;;20.20;45.00;;;;;;5056033;28;20285;-55
2023/03/22 14:16:17;;;;;;;;;;;20.20;45.10;;;;;;5063570;28;19952;-55
2023/03/22 14:18:44;;;;;;;;;;;20.20;45.10;;;;;;5059333;28;19931;-55
2023/03/22 14:21:13;;;;;;;;;;;20.20;45.10;;;;;;5059094;28;19921;-56